sensor_id;sensor_type;location;lat;lon;timestamp;P1;durP1;ratioP1;P2;durP2;ratioP2
23432;SDS011;41331;45.412;10.992;2023-05-27T00:00:09;9.65;;;7.43;;
23432;SDS011;41331;45.412;10.992;2023-05-27T00:02:37;10.35;;;7.40;;
23432;SDS011;41331;45.412;10.992;2023-05-27T00:05:05;11.13;;;8.25;;
23432;SDS011;41331;45.412;10.992;2023-05-27T00:07:33;12.63;;;8.30;;
23432;SDS011;41331;45.412;10.992;2023-05-27T00:10:00;11.25;;;8.57;;
23432;SDS011;41331;45.412;10.992;2023-05-27T00:12:28;16.30;;;10.02;;
23432;SDS011;41331;45.412;10.992;2023-05-27T00:14:55;14.85;;;10.45;;
23432;SDS011;41331;45.412;10.992;2023-05-27T00:17:24;16.55;;;10.63;;
23432;SDS011;41331;45.412;10.992;2023-05-27T00:19:52;14.65;;;9.13;;
23432;SDS011;41331;45.412;10.992;2023-05-27T00:22:21;19.40;;;8.38;;
23432;SDS011;41331;45.412;10.992;2023-05-27T00:24:50;12.48;;;8.20;;
23432;SDS011;41331;45.412;10.992;2023-05-27T00:27:17;15.02;;;7.82;;
23432;SDS011;41331;45.412;10.992;2023-05-27T00:29:44;9.27;;;7.47;;
23432;SDS011;41331;45.412;10.992;2023-05-27T00:32:12;14.35;;;7.75;;
23432;SDS011;41331;45.412;10.992;2023-05-27T00:34:39;10.93;;;7.18;;
23432;SDS011;41331;45.412;10.992;2023-05-27T00:37:07;13.45;;;6.65;;
23432;SDS011;41331;45.412;10.992;2023-05-27T00:39:35;7.90;;;5.78;;
23432;SDS011;41331;45.412;10.992;2023-05-27T00:42:02;10.60;;;5.63;;
23432;SDS011;41331;45.412;10.992;2023-05-27T00:44:30;10.40;;;5.63;;
23432;SDS011;41331;45.412;10.992;2023-05-27T00:46:59;9.52;;;5.50;;
23432;SDS011;41331;45.412;10.992;2023-05-27T00:49:27;13.52;;;5.22;;
23432;SDS011;41331;45.412;10.992;2023-05-27T00:51:55;10.25;;;3.67;;
23432;SDS011;41331;45.412;10.992;2023-05-27T00:54:23;9.80;;;3.47;;
23432;SDS011;41331;45.412;10.992;2023-05-27T00:56:52;6.78;;;2.22;;
23432;SDS011;41331;45.412;10.992;2023-05-27T00:59:19;6.90;;;2.50;;
23432;SDS011;41331;45.412;10.992;2023-05-27T01:01:47;4.22;;;2.30;;
23432;SDS011;41331;45.412;10.992;2023-05-27T01:04:16;9.10;;;2.72;;
23432;SDS011;41331;45.412;10.992;2023-05-27T01:06:48;9.52;;;2.80;;
23432;SDS011;41331;45.412;10.992;2023-05-27T01:09:35;5.00;;;2.67;;
23432;SDS011;41331;45.412;10.992;2023-05-27T01:12:31;10.55;;;3.35;;
23432;SDS011;41331;45.412;10.992;2023-05-27T01:15:09;6.93;;;3.90;;
23432;SDS011;41331;45.412;10.992;2023-05-27T01:17:38;7.78;;;3.65;;
23432;SDS011;41331;45.412;10.992;2023-05-27T01:20:10;6.10;;;3.40;;
23432;SDS011;41331;45.412;10.992;2023-05-27T01:22:39;8.75;;;3.50;;
23432;SDS011;41331;45.412;10.992;2023-05-27T01:25:09;5.55;;;2.75;;
23432;SDS011;41331;45.412;10.992;2023-05-27T01:27:38;6.63;;;2.67;;
23432;SDS011;41331;45.412;10.992;2023-05-27T01:30:07;4.82;;;2.60;;
23432;SDS011;41331;45.412;10.992;2023-05-27T01:32:53;4.82;;;2.30;;
23432;SDS011;41331;45.412;10.992;2023-05-27T01:38:14;5.38;;;2.75;;
23432;SDS011;41331;45.412;10.992;2023-05-27T01:43:14;6.03;;;2.67;;
23432;SDS011;41331;45.412;10.992;2023-05-27T01:45:42;13.05;;;3.20;;
23432;SDS011;41331;45.412;10.992;2023-05-27T01:48:10;7.75;;;2.80;;
23432;SDS011;41331;45.412;10.992;2023-05-27T01:50:38;5.32;;;3.20;;
23432;SDS011;41331;45.412;10.992;2023-05-27T01:53:05;6.90;;;3.88;;
23432;SDS011;41331;45.412;10.992;2023-05-27T01:55:33;7.32;;;4.20;;
23432;SDS011;41331;45.412;10.992;2023-05-27T01:58:01;7.43;;;4.38;;
23432;SDS011;41331;45.412;10.992;2023-05-27T02:00:28;7.38;;;4.20;;
23432;SDS011;41331;45.412;10.992;2023-05-27T02:02:56;7.30;;;3.58;;
23432;SDS011;41331;45.412;10.992;2023-05-27T02:05:26;6.80;;;4.13;;
23432;SDS011;41331;45.412;10.992;2023-05-27T02:07:54;7.03;;;3.85;;
23432;SDS011;41331;45.412;10.992;2023-05-27T02:10:25;7.57;;;3.78;;
23432;SDS011;41331;45.412;10.992;2023-05-27T02:12:52;5.70;;;3.58;;
23432;SDS011;41331;45.412;10.992;2023-05-27T02:15:20;5.90;;;3.85;;
23432;SDS011;41331;45.412;10.992;2023-05-27T02:17:53;7.40;;;3.55;;
23432;SDS011;41331;45.412;10.992;2023-05-27T02:20:23;5.30;;;3.70;;
23432;SDS011;41331;45.412;10.992;2023-05-27T02:22:51;4.82;;;2.95;;
23432;SDS011;41331;45.412;10.992;2023-05-27T02:25:19;5.07;;;3.00;;
23432;SDS011;41331;45.412;10.992;2023-05-27T02:27:46;4.97;;;2.90;;
23432;SDS011;41331;45.412;10.992;2023-05-27T02:30:15;4.25;;;2.90;;
23432;SDS011;41331;45.412;10.992;2023-05-27T02:32:44;7.00;;;2.90;;
23432;SDS011;41331;45.412;10.992;2023-05-27T02:35:13;3.70;;;2.60;;
23432;SDS011;41331;45.412;10.992;2023-05-27T02:37:44;6.33;;;2.80;;
23432;SDS011;41331;45.412;10.992;2023-05-27T02:40:12;4.68;;;2.90;;
23432;SDS011;41331;45.412;10.992;2023-05-27T02:42:49;5.10;;;2.72;;
23432;SDS011;41331;45.412;10.992;2023-05-27T02:45:17;6.47;;;2.90;;
23432;SDS011;41331;45.412;10.992;2023-05-27T02:47:45;3.97;;;2.38;;
23432;SDS011;41331;45.412;10.992;2023-05-27T02:50:12;5.57;;;2.42;;
23432;SDS011;41331;45.412;10.992;2023-05-27T02:52:39;6.03;;;2.50;;
23432;SDS011;41331;45.412;10.992;2023-05-27T02:55:08;6.05;;;3.15;;
23432;SDS011;41331;45.412;10.992;2023-05-27T02:57:36;7.43;;;2.70;;
23432;SDS011;41331;45.412;10.992;2023-05-27T03:00:03;5.15;;;2.60;;
23432;SDS011;41331;45.412;10.992;2023-05-27T03:02:32;6.88;;;2.53;;
23432;SDS011;41331;45.412;10.992;2023-05-27T03:05:00;4.55;;;2.40;;
23432;SDS011;41331;45.412;10.992;2023-05-27T03:07:28;5.43;;;2.50;;
23432;SDS011;41331;45.412;10.992;2023-05-27T03:09:58;4.97;;;2.28;;
23432;SDS011;41331;45.412;10.992;2023-05-27T03:12:25;5.82;;;2.20;;
23432;SDS011;41331;45.412;10.992;2023-05-27T03:14:53;3.35;;;2.20;;
23432;SDS011;41331;45.412;10.992;2023-05-27T03:17:20;4.80;;;2.00;;
23432;SDS011;41331;45.412;10.992;2023-05-27T03:19:50;6.72;;;2.42;;
23432;SDS011;41331;45.412;10.992;2023-05-27T03:22:17;5.57;;;2.17;;
23432;SDS011;41331;45.412;10.992;2023-05-27T03:24:45;4.82;;;2.10;;
23432;SDS011;41331;45.412;10.992;2023-05-27T03:27:14;5.38;;;2.47;;
23432;SDS011;41331;45.412;10.992;2023-05-27T03:29:44;4.80;;;2.10;;
23432;SDS011;41331;45.412;10.992;2023-05-27T03:32:13;6.78;;;2.08;;
23432;SDS011;41331;45.412;10.992;2023-05-27T03:34:43;5.70;;;1.75;;
23432;SDS011;41331;45.412;10.992;2023-05-27T03:37:10;4.32;;;1.92;;
23432;SDS011;41331;45.412;10.992;2023-05-27T03:39:47;7.13;;;2.08;;
23432;SDS011;41331;45.412;10.992;2023-05-27T03:42:15;5.20;;;2.13;;
23432;SDS011;41331;45.412;10.992;2023-05-27T03:44:43;4.63;;;2.47;;
23432;SDS011;41331;45.412;10.992;2023-05-27T03:47:10;6.25;;;2.63;;
23432;SDS011;41331;45.412;10.992;2023-05-27T03:49:38;4.60;;;2.40;;
23432;SDS011;41331;45.412;10.992;2023-05-27T03:52:08;6.38;;;2.40;;
23432;SDS011;41331;45.412;10.992;2023-05-27T03:54:35;7.35;;;2.15;;
23432;SDS011;41331;45.412;10.992;2023-05-27T03:57:02;5.43;;;2.30;;
23432;SDS011;41331;45.412;10.992;2023-05-27T03:59:30;4.22;;;2.25;;
23432;SDS011;41331;45.412;10.992;2023-05-27T04:01:58;5.18;;;2.30;;
23432;SDS011;41331;45.412;10.992;2023-05-27T04:04:26;5.93;;;2.65;;
23432;SDS011;41331;45.412;10.992;2023-05-27T04:06:53;6.07;;;2.15;;
23432;SDS011;41331;45.412;10.992;2023-05-27T04:09:22;6.85;;;2.85;;
23432;SDS011;41331;45.412;10.992;2023-05-27T04:11:50;4.20;;;2.30;;
23432;SDS011;41331;45.412;10.992;2023-05-27T04:14:17;6.20;;;2.60;;
23432;SDS011;41331;45.412;10.992;2023-05-27T04:16:44;4.90;;;2.47;;
23432;SDS011;41331;45.412;10.992;2023-05-27T04:19:12;4.68;;;2.40;;
23432;SDS011;41331;45.412;10.992;2023-05-27T04:21:41;9.00;;;2.95;;
23432;SDS011;41331;45.412;10.992;2023-05-27T04:24:09;4.63;;;2.15;;
23432;SDS011;41331;45.412;10.992;2023-05-27T04:26:36;4.00;;;2.25;;
23432;SDS011;41331;45.412;10.992;2023-05-27T04:29:04;4.80;;;2.47;;
23432;SDS011;41331;45.412;10.992;2023-05-27T04:31:37;4.82;;;2.78;;
23432;SDS011;41331;45.412;10.992;2023-05-27T04:34:11;5.65;;;2.67;;
23432;SDS011;41331;45.412;10.992;2023-05-27T04:36:40;5.80;;;2.75;;
23432;SDS011;41331;45.412;10.992;2023-05-27T04:39:10;6.22;;;2.90;;
23432;SDS011;41331;45.412;10.992;2023-05-27T04:41:42;7.43;;;3.03;;
23432;SDS011;41331;45.412;10.992;2023-05-27T04:44:30;4.60;;;2.80;;
23432;SDS011;41331;45.412;10.992;2023-05-27T04:46:59;5.22;;;2.88;;
23432;SDS011;41331;45.412;10.992;2023-05-27T04:49:27;6.07;;;2.40;;
23432;SDS011;41331;45.412;10.992;2023-05-27T04:51:55;5.07;;;2.45;;
23432;SDS011;41331;45.412;10.992;2023-05-27T04:54:23;5.85;;;2.67;;
23432;SDS011;41331;45.412;10.992;2023-05-27T04:56:50;5.25;;;2.80;;
23432;SDS011;41331;45.412;10.992;2023-05-27T04:59:25;6.32;;;2.45;;
23432;SDS011;41331;45.412;10.992;2023-05-27T05:02:14;7.88;;;2.60;;
23432;SDS011;41331;45.412;10.992;2023-05-27T05:05:01;5.25;;;2.90;;
23432;SDS011;41331;45.412;10.992;2023-05-27T05:07:30;4.15;;;2.50;;
23432;SDS011;41331;45.412;10.992;2023-05-27T05:09:58;4.60;;;2.72;;
23432;SDS011;41331;45.412;10.992;2023-05-27T05:12:32;5.43;;;2.42;;
23432;SDS011;41331;45.412;10.992;2023-05-27T05:15:00;5.00;;;2.42;;
23432;SDS011;41331;45.412;10.992;2023-05-27T05:17:28;4.88;;;2.40;;
23432;SDS011;41331;45.412;10.992;2023-05-27T05:19:55;6.32;;;2.40;;
23432;SDS011;41331;45.412;10.992;2023-05-27T05:22:24;9.35;;;2.85;;
23432;SDS011;41331;45.412;10.992;2023-05-27T05:24:53;4.25;;;2.50;;
23432;SDS011;41331;45.412;10.992;2023-05-27T05:27:28;3.70;;;2.38;;
23432;SDS011;41331;45.412;10.992;2023-05-27T05:29:55;4.75;;;2.67;;
23432;SDS011;41331;45.412;10.992;2023-05-27T05:32:24;7.63;;;2.55;;
23432;SDS011;41331;45.412;10.992;2023-05-27T05:34:52;4.93;;;3.10;;
23432;SDS011;41331;45.412;10.992;2023-05-27T05:37:21;4.78;;;2.30;;
23432;SDS011;41331;45.412;10.992;2023-05-27T05:39:49;5.25;;;2.90;;
23432;SDS011;41331;45.412;10.992;2023-05-27T05:42:16;6.75;;;2.50;;
23432;SDS011;41331;45.412;10.992;2023-05-27T05:44:44;5.68;;;2.40;;
23432;SDS011;41331;45.412;10.992;2023-05-27T05:47:12;5.18;;;2.40;;
23432;SDS011;41331;45.412;10.992;2023-05-27T05:49:41;5.60;;;2.50;;
23432;SDS011;41331;45.412;10.992;2023-05-27T05:52:10;5.32;;;2.70;;
23432;SDS011;41331;45.412;10.992;2023-05-27T05:54:38;4.45;;;2.20;;
23432;SDS011;41331;45.412;10.992;2023-05-27T05:57:05;5.20;;;2.58;;
23432;SDS011;41331;45.412;10.992;2023-05-27T05:59:33;7.47;;;2.97;;
23432;SDS011;41331;45.412;10.992;2023-05-27T06:02:00;5.80;;;3.00;;
23432;SDS011;41331;45.412;10.992;2023-05-27T06:04:28;6.18;;;2.88;;
23432;SDS011;41331;45.412;10.992;2023-05-27T06:06:55;5.72;;;3.08;;
23432;SDS011;41331;45.412;10.992;2023-05-27T06:09:42;6.28;;;3.00;;
23432;SDS011;41331;45.412;10.992;2023-05-27T06:12:17;7.00;;;2.90;;
23432;SDS011;41331;45.412;10.992;2023-05-27T06:14:46;5.50;;;3.47;;
23432;SDS011;41331;45.412;10.992;2023-05-27T06:17:23;5.88;;;3.13;;
23432;SDS011;41331;45.412;10.992;2023-05-27T06:19:51;5.35;;;2.90;;
23432;SDS011;41331;45.412;10.992;2023-05-27T06:22:18;4.80;;;2.83;;
23432;SDS011;41331;45.412;10.992;2023-05-27T06:25:06;4.72;;;2.95;;
23432;SDS011;41331;45.412;10.992;2023-05-27T06:27:52;8.75;;;3.00;;
23432;SDS011;41331;45.412;10.992;2023-05-27T06:30:23;4.88;;;2.83;;
23432;SDS011;41331;45.412;10.992;2023-05-27T06:32:51;5.85;;;2.47;;
23432;SDS011;41331;45.412;10.992;2023-05-27T06:35:20;4.88;;;2.75;;
23432;SDS011;41331;45.412;10.992;2023-05-27T06:37:47;8.30;;;2.83;;
23432;SDS011;41331;45.412;10.992;2023-05-27T06:40:15;4.35;;;2.20;;
23432;SDS011;41331;45.412;10.992;2023-05-27T06:42:43;5.35;;;2.65;;
23432;SDS011;41331;45.412;10.992;2023-05-27T06:45:30;3.78;;;2.20;;
23432;SDS011;41331;45.412;10.992;2023-05-27T06:48:21;6.32;;;2.75;;
23432;SDS011;41331;45.412;10.992;2023-05-27T06:50:48;4.78;;;3.05;;
23432;SDS011;41331;45.412;10.992;2023-05-27T06:53:16;6.50;;;2.97;;
23432;SDS011;41331;45.412;10.992;2023-05-27T06:56:07;7.47;;;3.20;;
23432;SDS011;41331;45.412;10.992;2023-05-27T06:58:53;5.43;;;3.45;;
23432;SDS011;41331;45.412;10.992;2023-05-27T07:01:21;4.97;;;2.90;;
23432;SDS011;41331;45.412;10.992;2023-05-27T07:04:10;5.78;;;3.22;;
23432;SDS011;41331;45.412;10.992;2023-05-27T07:06:47;5.43;;;3.00;;
23432;SDS011;41331;45.412;10.992;2023-05-27T07:09:16;4.85;;;3.05;;
23432;SDS011;41331;45.412;10.992;2023-05-27T07:11:44;8.30;;;3.15;;
23432;SDS011;41331;45.412;10.992;2023-05-27T07:14:31;6.30;;;3.50;;
23432;SDS011;41331;45.412;10.992;2023-05-27T07:16:59;7.07;;;3.50;;
23432;SDS011;41331;45.412;10.992;2023-05-27T07:19:26;7.90;;;3.45;;
23432;SDS011;41331;45.412;10.992;2023-05-27T07:21:58;6.45;;;3.90;;
23432;SDS011;41331;45.412;10.992;2023-05-27T07:24:26;6.35;;;3.60;;
23432;SDS011;41331;45.412;10.992;2023-05-27T07:26:55;8.50;;;4.00;;
23432;SDS011;41331;45.412;10.992;2023-05-27T07:29:25;8.88;;;4.57;;
23432;SDS011;41331;45.412;10.992;2023-05-27T07:31:53;11.27;;;6.65;;
23432;SDS011;41331;45.412;10.992;2023-05-27T07:34:26;8.70;;;4.43;;
23432;SDS011;41331;45.412;10.992;2023-05-27T07:36:54;6.63;;;4.22;;
23432;SDS011;41331;45.412;10.992;2023-05-27T07:39:22;9.50;;;5.88;;
23432;SDS011;41331;45.412;10.992;2023-05-27T07:41:53;7.73;;;4.60;;
23432;SDS011;41331;45.412;10.992;2023-05-27T07:44:22;6.90;;;4.55;;
23432;SDS011;41331;45.412;10.992;2023-05-27T07:46:52;7.30;;;4.38;;
23432;SDS011;41331;45.412;10.992;2023-05-27T07:49:19;6.57;;;4.40;;
23432;SDS011;41331;45.412;10.992;2023-05-27T07:51:59;9.13;;;4.65;;
23432;SDS011;41331;45.412;10.992;2023-05-27T07:54:27;8.90;;;4.95;;
23432;SDS011;41331;45.412;10.992;2023-05-27T07:56:54;8.93;;;5.10;;
23432;SDS011;41331;45.412;10.992;2023-05-27T07:59:24;7.97;;;4.75;;
23432;SDS011;41331;45.412;10.992;2023-05-27T08:01:52;8.68;;;5.15;;
23432;SDS011;41331;45.412;10.992;2023-05-27T08:04:19;8.43;;;4.53;;
23432;SDS011;41331;45.412;10.992;2023-05-27T08:06:52;7.57;;;4.90;;
23432;SDS011;41331;45.412;10.992;2023-05-27T08:09:39;6.95;;;4.40;;
23432;SDS011;41331;45.412;10.992;2023-05-27T08:12:25;17.08;;;9.77;;
23432;SDS011;41331;45.412;10.992;2023-05-27T08:15:08;7.97;;;4.95;;
23432;SDS011;41331;45.412;10.992;2023-05-27T08:17:42;8.57;;;4.80;;
23432;SDS011;41331;45.412;10.992;2023-05-27T08:20:17;8.38;;;4.60;;
23432;SDS011;41331;45.412;10.992;2023-05-27T08:22:56;14.05;;;5.03;;
23432;SDS011;41331;45.412;10.992;2023-05-27T08:25:47;12.02;;;5.07;;
23432;SDS011;41331;45.412;10.992;2023-05-27T08:28:14;15.85;;;10.38;;
23432;SDS011;41331;45.412;10.992;2023-05-27T08:30:50;9.45;;;5.72;;
23432;SDS011;41331;45.412;10.992;2023-05-27T08:33:21;9.40;;;5.22;;
23432;SDS011;41331;45.412;10.992;2023-05-27T08:35:50;8.07;;;4.90;;
23432;SDS011;41331;45.412;10.992;2023-05-27T08:38:17;7.13;;;4.65;;
23432;SDS011;41331;45.412;10.992;2023-05-27T08:40:45;8.07;;;4.60;;
23432;SDS011;41331;45.412;10.992;2023-05-27T08:43:12;9.05;;;4.60;;
23432;SDS011;41331;45.412;10.992;2023-05-27T08:45:44;12.25;;;8.00;;
23432;SDS011;41331;45.412;10.992;2023-05-27T08:48:12;10.35;;;5.82;;
23432;SDS011;41331;45.412;10.992;2023-05-27T08:50:50;7.95;;;4.68;;
23432;SDS011;41331;45.412;10.992;2023-05-27T08:53:18;8.52;;;4.70;;
23432;SDS011;41331;45.412;10.992;2023-05-27T08:55:47;10.63;;;4.70;;
23432;SDS011;41331;45.412;10.992;2023-05-27T08:58:18;9.85;;;4.78;;
23432;SDS011;41331;45.412;10.992;2023-05-27T09:00:49;11.55;;;5.18;;
23432;SDS011;41331;45.412;10.992;2023-05-27T09:03:19;8.23;;;4.93;;
23432;SDS011;41331;45.412;10.992;2023-05-27T09:05:47;9.80;;;4.82;;
23432;SDS011;41331;45.412;10.992;2023-05-27T09:08:14;13.27;;;4.90;;
23432;SDS011;41331;45.412;10.992;2023-05-27T09:10:42;9.52;;;4.50;;
23432;SDS011;41331;45.412;10.992;2023-05-27T09:13:09;10.45;;;6.60;;
23432;SDS011;41331;45.412;10.992;2023-05-27T09:15:37;10.57;;;6.05;;
23432;SDS011;41331;45.412;10.992;2023-05-27T09:18:05;7.53;;;4.70;;
23432;SDS011;41331;45.412;10.992;2023-05-27T09:20:33;10.02;;;5.47;;
23432;SDS011;41331;45.412;10.992;2023-05-27T09:23:01;7.07;;;4.32;;
23432;SDS011;41331;45.412;10.992;2023-05-27T09:25:30;8.73;;;4.57;;
23432;SDS011;41331;45.412;10.992;2023-05-27T09:27:57;6.18;;;4.05;;
23432;SDS011;41331;45.412;10.992;2023-05-27T09:30:25;8.98;;;4.45;;
23432;SDS011;41331;45.412;10.992;2023-05-27T09:33:00;6.90;;;4.38;;
23432;SDS011;41331;45.412;10.992;2023-05-27T09:35:29;8.38;;;4.40;;
23432;SDS011;41331;45.412;10.992;2023-05-27T09:38:06;7.03;;;4.38;;
23432;SDS011;41331;45.412;10.992;2023-05-27T09:40:35;6.68;;;3.92;;
23432;SDS011;41331;45.412;10.992;2023-05-27T09:43:04;7.13;;;4.20;;
23432;SDS011;41331;45.412;10.992;2023-05-27T09:45:33;11.23;;;4.45;;
23432;SDS011;41331;45.412;10.992;2023-05-27T09:48:00;6.22;;;4.20;;
23432;SDS011;41331;45.412;10.992;2023-05-27T09:50:29;7.68;;;4.50;;
23432;SDS011;41331;45.412;10.992;2023-05-27T09:52:57;9.48;;;4.47;;
23432;SDS011;41331;45.412;10.992;2023-05-27T09:55:38;7.40;;;4.28;;
23432;SDS011;41331;45.412;10.992;2023-05-27T09:58:08;8.65;;;4.80;;
23432;SDS011;41331;45.412;10.992;2023-05-27T10:00:37;13.60;;;9.38;;
23432;SDS011;41331;45.412;10.992;2023-05-27T10:03:08;8.93;;;5.68;;
23432;SDS011;41331;45.412;10.992;2023-05-27T10:05:37;9.60;;;4.40;;
23432;SDS011;41331;45.412;10.992;2023-05-27T10:08:06;7.88;;;3.85;;
23432;SDS011;41331;45.412;10.992;2023-05-27T10:10:50;7.78;;;4.82;;
23432;SDS011;41331;45.412;10.992;2023-05-27T10:13:18;8.05;;;3.95;;
23432;SDS011;41331;45.412;10.992;2023-05-27T10:15:48;6.15;;;4.10;;
23432;SDS011;41331;45.412;10.992;2023-05-27T10:18:41;7.70;;;4.25;;
23432;SDS011;41331;45.412;10.992;2023-05-27T10:21:09;7.65;;;4.45;;
23432;SDS011;41331;45.412;10.992;2023-05-27T10:23:36;13.38;;;7.68;;
23432;SDS011;41331;45.412;10.992;2023-05-27T10:26:07;19.55;;;10.98;;
23432;SDS011;41331;45.412;10.992;2023-05-27T10:28:36;8.93;;;4.60;;
23432;SDS011;41331;45.412;10.992;2023-05-27T10:33:48;5.65;;;2.97;;
23432;SDS011;41331;45.412;10.992;2023-05-27T10:36:24;6.60;;;3.00;;
23432;SDS011;41331;45.412;10.992;2023-05-27T10:39:00;6.28;;;3.67;;
23432;SDS011;41331;45.412;10.992;2023-05-27T10:44:36;6.78;;;4.05;;
23432;SDS011;41331;45.412;10.992;2023-05-27T10:47:04;7.28;;;4.60;;
23432;SDS011;41331;45.412;10.992;2023-05-27T10:49:38;7.50;;;4.22;;
23432;SDS011;41331;45.412;10.992;2023-05-27T10:52:16;8.27;;;4.57;;
23432;SDS011;41331;45.412;10.992;2023-05-27T10:54:45;7.35;;;4.28;;
23432;SDS011;41331;45.412;10.992;2023-05-27T10:57:15;9.30;;;4.95;;
23432;SDS011;41331;45.412;10.992;2023-05-27T10:59:51;7.68;;;4.38;;
23432;SDS011;41331;45.412;10.992;2023-05-27T11:02:30;8.90;;;5.60;;
23432;SDS011;41331;45.412;10.992;2023-05-27T11:05:13;9.57;;;5.18;;
23432;SDS011;41331;45.412;10.992;2023-05-27T11:07:41;7.28;;;5.00;;
23432;SDS011;41331;45.412;10.992;2023-05-27T11:10:09;8.05;;;5.20;;
23432;SDS011;41331;45.412;10.992;2023-05-27T11:12:37;8.85;;;5.43;;
23432;SDS011;41331;45.412;10.992;2023-05-27T11:15:04;7.85;;;4.55;;
23432;SDS011;41331;45.412;10.992;2023-05-27T11:17:32;6.93;;;4.25;;
23432;SDS011;41331;45.412;10.992;2023-05-27T11:20:01;9.43;;;4.97;;
23432;SDS011;41331;45.412;10.992;2023-05-27T11:22:34;8.75;;;4.60;;
23432;SDS011;41331;45.412;10.992;2023-05-27T11:25:04;10.15;;;4.78;;
23432;SDS011;41331;45.412;10.992;2023-05-27T11:27:34;6.85;;;4.47;;
23432;SDS011;41331;45.412;10.992;2023-05-27T11:30:06;9.57;;;6.07;;
23432;SDS011;41331;45.412;10.992;2023-05-27T11:32:39;8.93;;;4.63;;
23432;SDS011;41331;45.412;10.992;2023-05-27T11:35:13;8.27;;;4.55;;
23432;SDS011;41331;45.412;10.992;2023-05-27T11:37:46;7.60;;;4.35;;
23432;SDS011;41331;45.412;10.992;2023-05-27T11:40:17;9.10;;;5.00;;
23432;SDS011;41331;45.412;10.992;2023-05-27T11:42:45;8.05;;;4.70;;
23432;SDS011;41331;45.412;10.992;2023-05-27T11:45:14;9.07;;;4.82;;
23432;SDS011;41331;45.412;10.992;2023-05-27T11:47:44;9.82;;;4.93;;
23432;SDS011;41331;45.412;10.992;2023-05-27T11:50:17;10.65;;;5.28;;
23432;SDS011;41331;45.412;10.992;2023-05-27T11:55:23;7.15;;;4.38;;
23432;SDS011;41331;45.412;10.992;2023-05-27T11:57:51;14.35;;;9.07;;
23432;SDS011;41331;45.412;10.992;2023-05-27T12:00:18;6.60;;;4.25;;
23432;SDS011;41331;45.412;10.992;2023-05-27T12:02:46;7.40;;;4.80;;
23432;SDS011;41331;45.412;10.992;2023-05-27T12:05:15;8.52;;;5.20;;
23432;SDS011;41331;45.412;10.992;2023-05-27T12:08:00;8.55;;;5.15;;
23432;SDS011;41331;45.412;10.992;2023-05-27T12:10:27;7.60;;;4.50;;
23432;SDS011;41331;45.412;10.992;2023-05-27T12:13:04;8.93;;;4.82;;
23432;SDS011;41331;45.412;10.992;2023-05-27T12:15:32;9.90;;;5.22;;
23432;SDS011;41331;45.412;10.992;2023-05-27T12:18:01;9.30;;;5.05;;
23432;SDS011;41331;45.412;10.992;2023-05-27T12:20:29;7.15;;;4.53;;
23432;SDS011;41331;45.412;10.992;2023-05-27T12:22:56;7.03;;;4.45;;
23432;SDS011;41331;45.412;10.992;2023-05-27T12:25:24;9.02;;;4.85;;
23432;SDS011;41331;45.412;10.992;2023-05-27T12:27:51;8.38;;;4.80;;
23432;SDS011;41331;45.412;10.992;2023-05-27T12:30:19;9.50;;;5.50;;
23432;SDS011;41331;45.412;10.992;2023-05-27T12:32:46;8.50;;;4.72;;
23432;SDS011;41331;45.412;10.992;2023-05-27T12:35:15;8.05;;;5.07;;
23432;SDS011;41331;45.412;10.992;2023-05-27T12:37:42;8.20;;;4.95;;
23432;SDS011;41331;45.412;10.992;2023-05-27T12:40:10;7.95;;;4.50;;
23432;SDS011;41331;45.412;10.992;2023-05-27T12:42:41;9.50;;;4.97;;
23432;SDS011;41331;45.412;10.992;2023-05-27T12:45:09;8.18;;;4.70;;
23432;SDS011;41331;45.412;10.992;2023-05-27T12:47:40;7.23;;;4.67;;
23432;SDS011;41331;45.412;10.992;2023-05-27T12:50:07;9.90;;;4.95;;
23432;SDS011;41331;45.412;10.992;2023-05-27T12:52:35;9.15;;;4.80;;
23432;SDS011;41331;45.412;10.992;2023-05-27T12:55:03;10.15;;;4.90;;
23432;SDS011;41331;45.412;10.992;2023-05-27T12:57:30;8.73;;;4.75;;
23432;SDS011;41331;45.412;10.992;2023-05-27T12:59:58;6.90;;;4.57;;
23432;SDS011;41331;45.412;10.992;2023-05-27T13:02:25;8.32;;;5.05;;
23432;SDS011;41331;45.412;10.992;2023-05-27T13:04:52;9.20;;;4.72;;
23432;SDS011;41331;45.412;10.992;2023-05-27T13:07:20;7.43;;;4.85;;
23432;SDS011;41331;45.412;10.992;2023-05-27T13:09:47;9.52;;;4.90;;
23432;SDS011;41331;45.412;10.992;2023-05-27T13:12:14;7.25;;;4.55;;
23432;SDS011;41331;45.412;10.992;2023-05-27T13:14:42;8.23;;;4.35;;
23432;SDS011;41331;45.412;10.992;2023-05-27T13:17:09;9.27;;;4.53;;
23432;SDS011;41331;45.412;10.992;2023-05-27T13:19:37;8.98;;;4.55;;
23432;SDS011;41331;45.412;10.992;2023-05-27T13:22:04;13.38;;;8.02;;
23432;SDS011;41331;45.412;10.992;2023-05-27T13:24:32;14.35;;;5.80;;
23432;SDS011;41331;45.412;10.992;2023-05-27T13:26:59;11.88;;;6.43;;
23432;SDS011;41331;45.412;10.992;2023-05-27T13:29:27;8.45;;;5.00;;
23432;SDS011;41331;45.412;10.992;2023-05-27T13:31:54;6.90;;;4.97;;
23432;SDS011;41331;45.412;10.992;2023-05-27T13:34:23;8.85;;;4.95;;
23432;SDS011;41331;45.412;10.992;2023-05-27T13:36:50;7.75;;;4.90;;
23432;SDS011;41331;45.412;10.992;2023-05-27T13:39:18;7.72;;;4.97;;
23432;SDS011;41331;45.412;10.992;2023-05-27T13:41:45;6.88;;;4.70;;
23432;SDS011;41331;45.412;10.992;2023-05-27T13:44:12;6.70;;;4.70;;
23432;SDS011;41331;45.412;10.992;2023-05-27T13:46:40;7.00;;;4.95;;
23432;SDS011;41331;45.412;10.992;2023-05-27T13:49:08;6.93;;;4.65;;
23432;SDS011;41331;45.412;10.992;2023-05-27T13:51:42;9.10;;;4.97;;
23432;SDS011;41331;45.412;10.992;2023-05-27T13:54:10;7.75;;;4.85;;
23432;SDS011;41331;45.412;10.992;2023-05-27T13:56:38;8.13;;;4.72;;
23432;SDS011;41331;45.412;10.992;2023-05-27T13:59:05;8.32;;;5.00;;
23432;SDS011;41331;45.412;10.992;2023-05-27T14:01:33;7.93;;;5.10;;
23432;SDS011;41331;45.412;10.992;2023-05-27T14:04:01;7.97;;;4.72;;
23432;SDS011;41331;45.412;10.992;2023-05-27T14:06:28;6.07;;;4.35;;
23432;SDS011;41331;45.412;10.992;2023-05-27T14:08:57;8.75;;;4.97;;
23432;SDS011;41331;45.412;10.992;2023-05-27T14:11:24;9.80;;;5.35;;
23432;SDS011;41331;45.412;10.992;2023-05-27T14:13:52;8.75;;;4.40;;
23432;SDS011;41331;45.412;10.992;2023-05-27T14:16:23;7.88;;;4.82;;
23432;SDS011;41331;45.412;10.992;2023-05-27T14:18:51;8.38;;;4.95;;
23432;SDS011;41331;45.412;10.992;2023-05-27T14:21:18;8.15;;;4.63;;
23432;SDS011;41331;45.412;10.992;2023-05-27T14:23:45;8.20;;;4.95;;
23432;SDS011;41331;45.412;10.992;2023-05-27T14:26:15;7.45;;;4.85;;
23432;SDS011;41331;45.412;10.992;2023-05-27T14:28:43;9.73;;;4.80;;
23432;SDS011;41331;45.412;10.992;2023-05-27T14:31:10;6.72;;;4.63;;
23432;SDS011;41331;45.412;10.992;2023-05-27T14:33:38;6.93;;;4.72;;
23432;SDS011;41331;45.412;10.992;2023-05-27T14:36:05;8.90;;;4.53;;
23432;SDS011;41331;45.412;10.992;2023-05-27T14:38:34;8.82;;;4.53;;
23432;SDS011;41331;45.412;10.992;2023-05-27T14:41:01;7.72;;;4.32;;
23432;SDS011;41331;45.412;10.992;2023-05-27T14:43:29;8.02;;;4.90;;
23432;SDS011;41331;45.412;10.992;2023-05-27T14:45:56;8.85;;;4.50;;
23432;SDS011;41331;45.412;10.992;2023-05-27T14:48:24;7.35;;;4.45;;
23432;SDS011;41331;45.412;10.992;2023-05-27T14:50:52;6.57;;;4.70;;
23432;SDS011;41331;45.412;10.992;2023-05-27T14:53:19;12.10;;;5.13;;
23432;SDS011;41331;45.412;10.992;2023-05-27T14:55:46;9.73;;;5.15;;
23432;SDS011;41331;45.412;10.992;2023-05-27T14:58:16;8.15;;;4.70;;
23432;SDS011;41331;45.412;10.992;2023-05-27T15:00:44;8.82;;;4.78;;
23432;SDS011;41331;45.412;10.992;2023-05-27T15:03:11;7.97;;;5.13;;